Time;durP1;ratioP1;P1;durP2;ratioP2;P2;SDS_P1;SDS_P2;PMS_P1;PMS_P2;Temp;Humidity;BMP_temperature;BMP_pressure;BME280_temperature;BME280_humidity;BME280_pressure;Samples;Min_cycle;Max_cycle;Signal;HPM_P1;HPM_P2
2022/12/04 00:00:02;;;;;;;64.20;35.93;;;;;;;;;;5048278;28;20429;-82
2022/12/04 00:02:30;;;;;;;64.57;34.55;;;;;;;;;;5046887;28;20429;-83
2022/12/04 00:04:57;;;;;;;71.50;37.75;;;;;;;;;;5043341;28;20415;-83
2022/12/04 00:07:23;;;;;;;66.60;37.03;;;;;;;;;;5042773;28;20482;-82
2022/12/04 00:09:50;;;;;;;68.50;37.90;;;;;;;;;;5044253;28;20431;-83
2022/12/04 00:12:16;;;;;;;64.80;36.30;;;;;;;;;;5046502;28;20944;-83
2022/12/04 00:14:44;;;;;;;64.15;35.40;;;;;;;;;;5046268;28;20405;-82
2022/12/04 00:17:11;;;;;;;66.18;37.55;;;;;;;;;;5043217;28;20440;-82
2022/12/04 00:19:37;;;;;;;68.25;37.15;;;;;;;;;;5044194;28;20440;-83
2022/12/04 00:22:04;;;;;;;68.30;36.72;;;;;;;;;;5043780;28;20415;-82
2022/12/04 00:24:34;;;;;;;66.88;37.15;;;;;;;;;;5043821;28;20907;-82
2022/12/04 00:27:00;;;;;;;68.55;38.53;;;;;;;;;;5043068;28;20438;-82
2022/12/04 00:29:27;;;;;;;73.50;38.97;;;;;;;;;;5048131;28;20875;-83
2022/12/04 00:31:55;;;;;;;69.63;37.72;;;;;;;;;;5040641;28;20440;-82
2022/12/04 00:34:22;;;;;;;67.82;37.78;;;;;;;;;;5044319;28;20430;-83
2022/12/04 00:36:48;;;;;;;71.07;37.97;;;;;;;;;;5045736;28;20430;-82
2022/12/04 00:39:14;;;;;;;70.60;39.00;;;;;;;;;;5044484;28;20427;-82
2022/12/04 00:41:41;;;;;;;65.78;36.58;;;;;;;;;;5048163;28;20804;-83
2022/12/04 00:44:07;;;;;;;67.35;37.58;;;;;;;;;;5044672;28;20921;-82
2022/12/04 00:46:34;;;;;;;73.72;38.65;;;;;;;;;;5046114;28;20418;-82
2022/12/04 00:49:01;;;;;;;69.15;36.97;;;;;;;;;;5052045;28;20420;-83
2022/12/04 00:51:28;;;;;;;69.43;37.73;;;;;;;;;;5044425;28;20593;-82
2022/12/04 00:53:55;;;;;;;66.13;37.90;;;;;;;;;;5045394;28;20438;-82
2022/12/04 00:56:22;;;;;;;67.13;37.53;;;;;;;;;;5042308;28;20425;-82
2022/12/04 00:58:51;;;;;;;69.50;38.15;;;;;;;;;;5043257;28;20438;-82
2022/12/04 01:01:18;;;;;;;71.95;39.00;;;;;;;;;;5043081;28;20492;-82
2022/12/04 01:03:45;;;;;;;71.18;39.05;;;;;;;;;;5048161;28;20799;-82
2022/12/04 01:06:19;;;;;;;63.28;35.72;;;;;;;;;;5042278;28;20425;-83
2022/12/04 01:08:46;;;;;;;64.07;36.90;;;;;;;;;;5041657;28;20410;-82
2022/12/04 01:11:14;;;;;;;72.28;39.30;;;;;;;;;;5045125;28;20429;-81
2022/12/04 01:13:41;;;;;;;74.25;40.38;;;;;;;;;;5042844;28;20440;-83
2022/12/04 01:16:07;;;;;;;74.38;38.70;;;;;;;;;;5042732;28;20434;-82
2022/12/04 01:18:35;;;;;;;65.95;36.22;;;;;;;;;;5048504;28;20409;-83
2022/12/04 01:21:01;;;;;;;71.38;37.42;;;;;;;;;;5042135;28;20417;-82
2022/12/04 01:23:29;;;;;;;71.25;37.63;;;;;;;;;;5046067;28;20433;-82
2022/12/04 01:25:57;;;;;;;71.70;36.63;;;;;;;;;;5048448;28;20430;-82
2022/12/04 01:28:24;;;;;;;68.95;36.90;;;;;;;;;;5049765;28;20461;-82
2022/12/04 01:31:00;;;;;;;71.22;38.65;;;;;;;;;;5050415;28;20508;-82
2022/12/04 01:33:27;;;;;;;69.15;37.30;;;;;;;;;;5051861;28;20442;-82
2022/12/04 01:35:55;;;;;;;68.37;38.20;;;;;;;;;;5048279;28;20515;-82
2022/12/04 01:38:21;;;;;;;69.22;35.78;;;;;;;;;;5047570;28;20427;-82
2022/12/04 01:40:49;;;;;;;66.77;37.13;;;;;;;;;;5048898;28;20427;-82
2022/12/04 01:43:16;;;;;;;69.43;38.60;;;;;;;;;;5046727;28;20428;-83
2022/12/04 01:45:44;;;;;;;67.45;36.13;;;;;;;;;;5050870;28;20425;-83
2022/12/04 01:48:18;;;;;;;68.43;38.50;;;;;;;;;;5051235;28;20424;-82
2022/12/04 01:50:45;;;;;;;73.80;38.60;;;;;;;;;;5048079;28;20413;-83
2022/12/04 01:53:12;;;;;;;70.37;38.60;;;;;;;;;;5046628;28;20985;-83
2022/12/04 01:55:39;;;;;;;65.53;36.25;;;;;;;;;;5047388;28;20924;-82
2022/12/04 01:58:07;;;;;;;71.18;38.38;;;;;;;;;;5050417;28;20420;-83
2022/12/04 02:00:33;;;;;;;65.63;37.28;;;;;;;;;;5047824;28;20425;-83
2022/12/04 02:03:00;;;;;;;66.13;36.60;;;;;;;;;;5050409;28;20427;-83
2022/12/04 02:05:27;;;;;;;70.75;37.53;;;;;;;;;;5046691;28;20416;-82
2022/12/04 02:07:56;;;;;;;71.70;38.40;;;;;;;;;;5044977;28;20794;-82
2022/12/04 02:10:26;;;;;;;69.15;36.75;;;;;;;;;;5049111;28;20409;-83
2022/12/04 02:12:58;;;;;;;69.35;38.15;;;;;;;;;;5047043;28;20492;-82
2022/12/04 02:15:30;;;;;;;70.20;37.63;;;;;;;;;;5043826;28;20413;-82
2022/12/04 02:17:59;;;;;;;67.57;36.90;;;;;;;;;;5045350;28;20432;-82
2022/12/04 02:20:32;;;;;;;69.32;37.35;;;;;;;;;;5042726;28;20421;-82
2022/12/04 02:23:16;;;;;;;69.28;38.10;;;;;;;;;;5046236;28;20418;-83
2022/12/04 02:25:45;;;;;;;69.75;36.38;;;;;;;;;;5046395;28;20420;-82
2022/12/04 02:28:15;;;;;;;75.63;38.72;;;;;;;;;;5047504;28;20429;-82
2022/12/04 02:30:42;;;;;;;71.83;38.93;;;;;;;;;;5047903;28;20425;-82
2022/12/04 02:33:14;;;;;;;65.28;35.88;;;;;;;;;;5052210;28;20430;-82
2022/12/04 02:35:42;;;;;;;74.50;39.42;;;;;;;;;;5046799;28;20492;-82
2022/12/04 02:38:11;;;;;;;68.15;37.65;;;;;;;;;;5051915;28;20799;-83
2022/12/04 02:40:42;;;;;;;76.32;39.30;;;;;;;;;;5042237;28;20429;-82
2022/12/04 02:43:12;;;;;;;72.72;39.00;;;;;;;;;;5047717;28;20421;-83
2022/12/04 02:45:43;;;;;;;70.80;38.60;;;;;;;;;;5048347;28;20413;-83
2022/12/04 02:48:10;;;;;;;72.13;39.45;;;;;;;;;;5048993;28;20425;-81
2022/12/04 02:50:37;;;;;;;75.03;39.42;;;;;;;;;;5046893;28;20405;-83
2022/12/04 02:53:05;;;;;;;73.57;39.05;;;;;;;;;;5050258;28;21112;-82
2022/12/04 02:55:36;;;;;;;69.93;36.90;;;;;;;;;;5046873;28;20422;-83
2022/12/04 02:58:05;;;;;;;72.53;38.55;;;;;;;;;;5047429;28;20420;-83
2022/12/04 03:00:33;;;;;;;75.15;39.65;;;;;;;;;;5046066;28;20425;-82
2022/12/04 03:03:02;;;;;;;72.93;38.40;;;;;;;;;;5046979;28;20441;-83
2022/12/04 03:05:34;;;;;;;69.47;37.30;;;;;;;;;;5046520;28;20415;-83
2022/12/04 03:08:04;;;;;;;73.88;39.60;;;;;;;;;;5049004;28;20811;-84
2022/12/04 03:10:32;;;;;;;70.82;39.17;;;;;;;;;;5051647;28;20440;-82
2022/12/04 03:13:03;;;;;;;79.95;39.13;;;;;;;;;;5045707;28;20455;-82
2022/12/04 03:15:31;;;;;;;71.60;38.85;;;;;;;;;;5042920;28;20441;-83
2022/12/04 03:17:59;;;;;;;72.30;39.50;;;;;;;;;;5041459;28;20899;-82
2022/12/04 03:20:28;;;;;;;75.30;39.23;;;;;;;;;;5043063;28;20436;-82
2022/12/04 03:22:58;;;;;;;73.68;39.80;;;;;;;;;;5041229;28;20438;-82
2022/12/04 03:25:28;;;;;;;68.47;37.50;;;;;;;;;;5042491;28;20785;-82
2022/12/04 03:28:00;;;;;;;73.72;39.15;;;;;;;;;;5044648;28;20429;-82
2022/12/04 03:30:30;;;;;;;76.95;39.00;;;;;;;;;;5047684;28;20948;-82
2022/12/04 03:33:02;;;;;;;71.18;38.03;;;;;;;;;;5046325;28;20413;-82
2022/12/04 03:35:33;;;;;;;74.40;38.92;;;;;;;;;;5045265;28;20923;-82
2022/12/04 03:38:02;;;;;;;72.60;39.00;;;;;;;;;;5046011;28;21103;-82
2022/12/04 03:40:32;;;;;;;74.05;39.92;;;;;;;;;;5045190;28;20430;-82
2022/12/04 03:43:00;;;;;;;71.70;36.55;;;;;;;;;;5045659;28;20433;-82
2022/12/04 03:45:28;;;;;;;68.75;38.13;;;;;;;;;;5045608;28;20481;-82
2022/12/04 03:47:57;;;;;;;68.38;38.72;;;;;;;;;;5049168;28;20441;-83
2022/12/04 03:50:30;;;;;;;70.95;38.80;;;;;;;;;;5045471;28;20426;-82
2022/12/04 03:53:00;;;;;;;68.15;36.92;;;;;;;;;;5046056;28;20980;-82
2022/12/04 03:55:30;;;;;;;70.93;38.10;;;;;;;;;;5046362;28;20425;-82
2022/12/04 03:57:58;;;;;;;66.25;37.20;;;;;;;;;;5045898;28;20425;-83
2022/12/04 04:00:26;;;;;;;70.50;38.10;;;;;;;;;;5047506;28;20921;-82
2022/12/04 04:02:56;;;;;;;73.28;40.05;;;;;;;;;;5045636;28;20426;-82
2022/12/04 04:05:24;;;;;;;72.37;38.00;;;;;;;;;;5049827;28;20460;-82
2022/12/04 04:07:52;;;;;;;74.28;38.78;;;;;;;;;;5043458;28;20421;-83
2022/12/04 04:10:22;;;;;;;69.47;37.75;;;;;;;;;;5046166;28;20427;-82
2022/12/04 04:24:13;;;;;;;71.57;38.22;;;;;;;;;;5048913;28;20433;-82
2022/12/04 04:24:16;;;;;;;71.38;37.30;;;;;;;;;;5049843;28;20462;-82
2022/12/04 04:26:45;;;;;;;70.47;37.00;;;;;;;;;;5045578;28;20425;-82
2022/12/04 04:29:12;;;;;;;67.45;37.08;;;;;;;;;;5048842;28;21033;-82
2022/12/04 04:31:42;;;;;;;73.82;38.47;;;;;;;;;;5044499;28;20429;-82
2022/12/04 04:34:13;;;;;;;66.63;37.83;;;;;;;;;;5043979;28;20417;-82
2022/12/04 04:36:45;;;;;;;72.30;37.55;;;;;;;;;;5047121;28;20425;-82
2022/12/04 04:39:15;;;;;;;76.65;38.03;;;;;;;;;;5044828;28;20433;-82
2022/12/04 04:41:44;;;;;;;71.20;38.90;;;;;;;;;;5050460;28;20448;-83
2022/12/04 04:44:16;;;;;;;64.68;36.60;;;;;;;;;;5046164;28;20423;-82
2022/12/04 04:46:46;;;;;;;66.43;37.33;;;;;;;;;;5044204;28;20432;-82
2022/12/04 04:49:14;;;;;;;66.85;36.80;;;;;;;;;;5040903;28;20425;-82
2022/12/04 04:51:41;;;;;;;68.50;36.67;;;;;;;;;;5046532;28;20440;-82
2022/12/04 04:54:10;;;;;;;71.65;38.40;;;;;;;;;;5044552;28;20815;-82
2022/12/04 04:56:39;;;;;;;67.75;36.60;;;;;;;;;;5042958;28;20432;-82
2022/12/04 04:59:05;;;;;;;72.57;38.58;;;;;;;;;;5047254;28;20429;-82
2022/12/04 05:01:33;;;;;;;68.28;36.30;;;;;;;;;;5049689;28;20425;-82
2022/12/04 05:04:00;;;;;;;66.38;36.28;;;;;;;;;;5049134;28;20430;-83
2022/12/04 05:06:26;;;;;;;67.15;35.63;;;;;;;;;;5049315;28;20429;-83
2022/12/04 05:08:53;;;;;;;64.80;34.63;;;;;;;;;;5051177;28;20414;-82
2022/12/04 05:11:20;;;;;;;65.00;35.33;;;;;;;;;;5043683;28;20421;-82
2022/12/04 05:13:46;;;;;;;65.13;34.63;;;;;;;;;;5049666;28;20437;-83
2022/12/04 05:16:14;;;;;;;67.85;36.65;;;;;;;;;;5050987;28;20425;-82
2022/12/04 05:19:52;;;;;;;65.05;36.28;;;;;;;;;;5049301;28;20434;-82
2022/12/04 05:21:28;;;;;;;64.60;35.63;;;;;;;;;;5047285;28;20447;-83
2022/12/04 05:23:55;;;;;;;63.40;34.43;;;;;;;;;;5054344;28;20514;-82
2022/12/04 05:26:22;;;;;;;65.20;34.92;;;;;;;;;;5047261;28;20419;-82
2022/12/04 05:28:48;;;;;;;60.70;34.33;;;;;;;;;;5050931;28;20425;-82
2022/12/04 05:31:15;;;;;;;63.10;35.78;;;;;;;;;;5047446;28;20425;-82
2022/12/04 05:33:43;;;;;;;64.53;34.70;;;;;;;;;;5050394;28;20425;-82
2022/12/04 05:36:12;;;;;;;60.25;33.60;;;;;;;;;;5051782;28;20421;-82
2022/12/04 05:38:38;;;;;;;59.65;33.25;;;;;;;;;;5050190;28;20471;-82
2022/12/04 05:41:06;;;;;;;62.90;34.60;;;;;;;;;;5048929;28;20470;-82
2022/12/04 05:43:32;;;;;;;64.43;34.47;;;;;;;;;;5044842;28;20429;-82
2022/12/04 05:46:00;;;;;;;62.33;35.03;;;;;;;;;;5047449;28;20426;-82
2022/12/04 05:48:27;;;;;;;61.83;34.00;;;;;;;;;;5044968;28;20430;-82
2022/12/04 05:50:54;;;;;;;65.53;35.33;;;;;;;;;;5047791;28;20435;-82
2022/12/04 05:53:21;;;;;;;60.33;35.00;;;;;;;;;;5049401;28;20925;-82
2022/12/04 05:55:54;;;;;;;60.70;34.38;;;;;;;;;;5048024;28;20429;-82
2022/12/04 05:58:20;;;;;;;61.08;33.42;;;;;;;;;;5050330;28;20440;-82
2022/12/04 06:00:46;;;;;;;59.92;32.25;;;;;;;;;;5046206;28;20433;-81
2022/12/04 06:03:13;;;;;;;59.88;34.40;;;;;;;;;;5047323;28;20867;-81
2022/12/04 06:05:40;;;;;;;58.38;32.72;;;;;;;;;;5047211;28;20416;-83
2022/12/04 06:08:07;;;;;;;62.75;33.35;;;;;;;;;;5049286;28;21198;-82
2022/12/04 06:10:34;;;;;;;64.10;35.50;;;;;;;;;;5044799;28;20428;-82
2022/12/04 06:13:01;;;;;;;69.50;39.00;;;;;;;;;;5045942;28;20436;-82
2022/12/04 06:15:28;;;;;;;67.93;37.53;;;;;;;;;;5048647;28;20429;-82
2022/12/04 06:17:54;;;;;;;61.65;34.03;;;;;;;;;;5048173;28;20797;-82
2022/12/04 06:20:21;;;;;;;63.50;34.05;;;;;;;;;;5047793;28;20417;-82
2022/12/04 06:22:48;;;;;;;58.73;33.07;;;;;;;;;;5051076;28;20945;-83
2022/12/04 06:25:15;;;;;;;63.92;33.70;;;;;;;;;;5046598;28;20403;-82
2022/12/04 06:27:43;;;;;;;60.75;33.17;;;;;;;;;;5048965;28;20425;-83
2022/12/04 06:30:11;;;;;;;57.65;33.55;;;;;;;;;;5047726;28;20414;-82
2022/12/04 06:32:38;;;;;;;59.53;33.15;;;;;;;;;;5048836;28;20431;-82
2022/12/04 06:35:05;;;;;;;56.00;32.50;;;;;;;;;;5049144;28;20416;-82
2022/12/04 06:37:33;;;;;;;62.05;33.78;;;;;;;;;;5046668;28;20988;-82
2022/12/04 06:39:59;;;;;;;61.20;34.75;;;;;;;;;;5044435;28;20486;-82
2022/12/04 06:42:27;;;;;;;62.40;35.00;;;;;;;;;;5050271;28;20429;-82
2022/12/04 06:44:54;;;;;;;60.10;33.78;;;;;;;;;;5049629;28;20423;-82
2022/12/04 06:47:21;;;;;;;59.22;33.33;;;;;;;;;;5048298;28;20429;-82
2022/12/04 06:49:49;;;;;;;59.10;32.47;;;;;;;;;;5048353;28;20415;-82
2022/12/04 06:52:15;;;;;;;58.55;33.35;;;;;;;;;;5048001;28;20425;-83
2022/12/04 06:54:42;;;;;;;61.15;34.55;;;;;;;;;;5042762;28;20413;-82
2022/12/04 06:57:09;;;;;;;61.25;34.25;;;;;;;;;;5048408;28;20425;-82
2022/12/04 06:59:38;;;;;;;58.05;32.88;;;;;;;;;;5048441;28;20955;-82
2022/12/04 07:02:04;;;;;;;61.80;33.97;;;;;;;;;;5047544;28;20849;-83
2022/12/04 07:04:30;;;;;;;63.47;34.83;;;;;;;;;;5044776;28;20409;-81
2022/12/04 07:06:57;;;;;;;60.08;34.30;;;;;;;;;;5047472;28;20417;-82
2022/12/04 07:09:23;;;;;;;62.20;33.47;;;;;;;;;;5047361;28;20414;-81
2022/12/04 07:11:50;;;;;;;56.88;33.28;;;;;;;;;;5046120;28;20434;-82
2022/12/04 07:14:17;;;;;;;56.55;32.85;;;;;;;;;;5045602;28;20811;-82
2022/12/04 07:16:45;;;;;;;64.32;35.42;;;;;;;;;;5046687;28;20871;-82
2022/12/04 07:19:12;;;;;;;61.88;33.50;;;;;;;;;;5047830;28;20435;-82
2022/12/04 07:21:39;;;;;;;56.25;34.63;;;;;;;;;;5050200;28;20883;-83
2022/12/04 07:24:06;;;;;;;61.90;33.25;;;;;;;;;;5043587;28;20431;-82
2022/12/04 07:26:35;;;;;;;56.80;33.72;;;;;;;;;;5049397;28;20425;-82
2022/12/04 07:29:01;;;;;;;54.85;32.78;;;;;;;;;;5041577;28;20436;-82
2022/12/04 07:31:29;;;;;;;58.50;33.22;;;;;;;;;;5045596;28;20436;-82
2022/12/04 07:33:57;;;;;;;61.45;33.47;;;;;;;;;;5043505;28;21087;-82
2022/12/04 07:36:24;;;;;;;60.15;34.05;;;;;;;;;;5048831;28;20425;-82
2022/12/04 07:38:51;;;;;;;60.33;33.10;;;;;;;;;;5049817;28;20443;-82
2022/12/04 07:41:18;;;;;;;56.83;32.55;;;;;;;;;;5048668;28;20460;-82
2022/12/04 07:43:44;;;;;;;54.50;31.30;;;;;;;;;;5044212;28;20414;-82
2022/12/04 07:46:12;;;;;;;57.30;32.85;;;;;;;;;;5047484;28;20860;-82
2022/12/04 07:48:38;;;;;;;63.43;33.53;;;;;;;;;;5046137;28;20427;-82
2022/12/04 07:51:08;;;;;;;59.17;32.47;;;;;;;;;;5046226;28;20421;-82
2022/12/04 07:53:36;;;;;;;62.35;33.72;;;;;;;;;;5048660;28;20431;-82
2022/12/04 07:56:02;;;;;;;54.90;31.40;;;;;;;;;;5047244;28;20478;-82
2022/12/04 07:58:30;;;;;;;58.27;33.30;;;;;;;;;;5043966;28;20436;-82
2022/12/04 08:01:04;;;;;;;56.58;31.70;;;;;;;;;;5046814;28;20423;-82
2022/12/04 08:03:30;;;;;;;59.88;32.63;;;;;;;;;;5047513;28;20429;-82
2022/12/04 08:05:59;;;;;;;60.25;33.75;;;;;;;;;;5042692;28;20803;-82
2022/12/04 08:08:27;;;;;;;59.08;34.08;;;;;;;;;;5047200;28;20516;-83
2022/12/04 08:10:53;;;;;;;58.47;33.33;;;;;;;;;;5045931;28;20437;-82
2022/12/04 08:13:20;;;;;;;58.42;32.17;;;;;;;;;;5048458;28;20429;-82
2022/12/04 08:15:48;;;;;;;57.75;32.28;;;;;;;;;;5048338;28;20421;-81
2022/12/04 08:18:14;;;;;;;59.60;32.75;;;;;;;;;;5049390;28;20494;-81
2022/12/04 08:20:41;;;;;;;58.53;31.90;;;;;;;;;;5047465;28;20420;-81
2022/12/04 08:23:08;;;;;;;60.20;31.90;;;;;;;;;;5047699;28;20417;-82
2022/12/04 08:25:37;;;;;;;53.95;31.75;;;;;;;;;;5047909;28;20427;-82
2022/12/04 08:28:04;;;;;;;57.15;32.17;;;;;;;;;;5044688;28;20425;-82
2022/12/04 08:30:30;;;;;;;62.67;33.13;;;;;;;;;;5044576;28;20923;-83
2022/12/04 08:32:57;;;;;;;59.38;33.78;;;;;;;;;;5045875;28;20444;-82
2022/12/04 08:35:24;;;;;;;56.50;31.83;;;;;;;;;;5046875;28;20531;-81
2022/12/04 08:37:51;;;;;;;57.53;32.38;;;;;;;;;;5048090;28;20934;-81
2022/12/04 08:40:17;;;;;;;58.95;33.00;;;;;;;;;;5046917;28;20440;-81
2022/12/04 08:42:45;;;;;;;60.45;32.67;;;;;;;;;;5048162;28;20431;-81
2022/12/04 08:45:12;;;;;;;58.00;31.85;;;;;;;;;;5053012;28;20421;-80
2022/12/04 08:47:38;;;;;;;56.55;31.80;;;;;;;;;;5048391;28;20413;-80
2022/12/04 08:50:06;;;;;;;56.63;32.00;;;;;;;;;;5047830;28;20418;-80
2022/12/04 08:52:32;;;;;;;59.15;32.90;;;;;;;;;;5045066;28;20416;-81
2022/12/04 08:54:59;;;;;;;55.63;30.60;;;;;;;;;;5044896;28;20924;-80
2022/12/04 08:57:26;;;;;;;61.15;33.47;;;;;;;;;;5051767;28;20448;-81
2022/12/04 08:59:53;;;;;;;54.20;31.55;;;;;;;;;;5047809;28;20415;-81
2022/12/04 09:02:20;;;;;;;57.95;33.33;;;;;;;;;;5059433;28;20426;-80
2022/12/04 09:04:46;;;;;;;56.72;31.73;;;;;;;;;;5046705;28;20415;-80
2022/12/04 09:07:12;;;;;;;55.83;32.00;;;;;;;;;;5045848;28;20411;-80
2022/12/04 09:09:40;;;;;;;59.87;31.40;;;;;;;;;;5046683;28;20417;-80
2022/12/04 09:12:06;;;;;;;58.47;32.15;;;;;;;;;;5050130;28;20435;-81
2022/12/04 09:14:33;;;;;;;54.07;32.73;;;;;;;;;;5049574;28;20422;-80
2022/12/04 09:17:01;;;;;;;57.47;32.10;;;;;;;;;;5049757;28;20425;-81
2022/12/04 09:19:28;;;;;;;56.87;32.90;;;;;;;;;;5049025;28;20410;-81
2022/12/04 09:21:55;;;;;;;57.23;31.67;;;;;;;;;;5045560;28;20429;-80
2022/12/04 09:24:22;;;;;;;57.88;31.73;;;;;;;;;;5047868;28;20429;-81
2022/12/04 09:26:48;;;;;;;59.37;33.30;;;;;;;;;;5045342;28;20432;-79
2022/12/04 09:29:15;;;;;;;57.05;32.80;;;;;;;;;;5046060;28;20458;-79
2022/12/04 09:31:41;;;;;;;61.38;32.95;;;;;;;;;;5047472;28;20429;-82
2022/12/04 09:34:09;;;;;;;58.70;33.38;;;;;;;;;;5048740;28;20425;-79
2022/12/04 09:36:37;;;;;;;55.88;31.83;;;;;;;;;;5046006;28;20504;-81
2022/12/04 09:39:04;;;;;;;59.07;33.33;;;;;;;;;;5046084;28;20485;-79
2022/12/04 09:41:45;;;;;;;59.23;33.07;;;;;;;;;;5045761;28;20799;-79
2022/12/04 09:44:14;;;;;;;57.05;33.20;;;;;;;;;;5040765;28;20431;-80
2022/12/04 09:46:44;;;;;;;55.13;32.80;;;;;;;;;;5055591;28;20429;-80
2022/12/04 09:49:14;;;;;;;52.03;31.90;;;;;;;;;;5050288;28;20883;-81
2022/12/04 09:51:42;;;;;;;60.38;33.33;;;;;;;;;;5047822;28;20417;-81
2022/12/04 09:54:12;;;;;;;54.92;31.05;;;;;;;;;;5049767;28;20428;-80
2022/12/04 09:56:39;;;;;;;57.70;31.67;;;;;;;;;;5050554;28;20484;-79
2022/12/04 09:59:11;;;;;;;59.40;32.65;;;;;;;;;;5049715;28;20438;-79
2022/12/04 10:01:41;;;;;;;58.30;33.08;;;;;;;;;;5049662;28;20433;-79
2022/12/04 10:04:09;;;;;;;59.27;32.07;;;;;;;;;;5049907;28;20955;-79
2022/12/04 10:06:40;;;;;;;54.10;30.03;;;;;;;;;;5051518;28;20415;-79
2022/12/04 10:09:09;;;;;;;59.43;32.67;;;;;;;;;;5051156;28;20415;-79
2022/12/04 10:11:48;;;;;;;57.53;32.67;;;;;;;;;;5051951;28;20822;-80
2022/12/04 10:14:21;;;;;;;55.10;31.48;;;;;;;;;;5050966;28;20421;-80
2022/12/04 10:16:55;;;;;;;55.53;31.90;;;;;;;;;;5051798;28;20815;-80
2022/12/04 10:19:25;;;;;;;53.13;30.52;;;;;;;;;;5048202;28;20901;-81
2022/12/04 10:21:58;;;;;;;54.95;31.92;;;;;;;;;;5051918;28;20440;-79
2022/12/04 10:24:30;;;;;;;51.47;31.10;;;;;;;;;;5047249;28;20414;-80
2022/12/04 10:27:00;;;;;;;53.30;31.13;;;;;;;;;;5044397;28;20775;-80
2022/12/04 10:29:29;;;;;;;58.75;32.38;;;;;;;;;;5049096;28;20410;-80
2022/12/04 10:31:57;;;;;;;51.50;30.17;;;;;;;;;;5049080;28;20421;-80
2022/12/04 10:34:26;;;;;;;55.17;31.83;;;;;;;;;;5046044;28;20456;-81
2022/12/04 10:36:55;;;;;;;54.10;31.58;;;;;;;;;;5051791;28;20433;-80
2022/12/04 10:39:25;;;;;;;52.75;30.45;;;;;;;;;;5049341;28;20437;-81
2022/12/04 10:41:56;;;;;;;52.40;31.90;;;;;;;;;;5045730;28;20495;-80
2022/12/04 10:44:23;;;;;;;54.85;31.58;;;;;;;;;;5053443;28;20419;-80
2022/12/04 10:46:50;;;;;;;55.35;30.63;;;;;;;;;;5050138;28;20936;-80
2022/12/04 10:49:17;;;;;;;58.20;33.10;;;;;;;;;;5051384;28;20434;-81
2022/12/04 10:51:44;;;;;;;54.67;31.35;;;;;;;;;;5047003;28;20850;-81
2022/12/04 10:54:16;;;;;;;58.13;31.77;;;;;;;;;;5047583;28;20434;-80
2022/12/04 10:56:49;;;;;;;54.33;32.63;;;;;;;;;;5050570;28;20491;-82
2022/12/04 10:59:17;;;;;;;57.70;31.45;;;;;;;;;;5046968;28;20437;-79
2022/12/04 11:01:44;;;;;;;57.22;33.22;;;;;;;;;;5046280;28;20433;-78
2022/12/04 11:04:19;;;;;;;54.72;32.08;;;;;;;;;;5048405;28;20942;-79
2022/12/04 11:06:46;;;;;;;56.45;32.40;;;;;;;;;;5048673;28;20423;-79
2022/12/04 11:09:18;;;;;;;56.58;32.80;;;;;;;;;;5046711;28;20437;-78
2022/12/04 11:11:45;;;;;;;62.78;34.13;;;;;;;;;;5047321;28;20433;-78
2022/12/04 11:14:13;;;;;;;62.47;34.70;;;;;;;;;;5045849;28;20502;-79
2022/12/04 11:16:43;;;;;;;61.53;33.80;;;;;;;;;;5046484;28;20436;-78
2022/12/04 11:19:19;;;;;;;58.90;34.35;;;;;;;;;;5051004;28;20426;-79
2022/12/04 11:21:46;;;;;;;67.25;35.50;;;;;;;;;;5046646;28;20457;-81
2022/12/04 11:24:17;;;;;;;58.55;33.17;;;;;;;;;;5044683;28;20435;-80
2022/12/04 11:26:47;;;;;;;55.90;31.58;;;;;;;;;;5041879;28;20421;-79
2022/12/04 11:29:15;;;;;;;62.95;35.13;;;;;;;;;;5048326;28;20436;-81
2022/12/04 11:31:41;;;;;;;60.55;33.33;;;;;;;;;;5047358;28;20424;-80
2022/12/04 11:34:08;;;;;;;59.97;33.08;;;;;;;;;;5049983;28;20441;-80
2022/12/04 11:36:39;;;;;;;61.10;33.30;;;;;;;;;;5048315;28;20999;-81
2022/12/04 11:39:07;;;;;;;57.92;34.15;;;;;;;;;;5044530;28;20429;-80
2022/12/04 11:41:34;;;;;;;55.70;33.55;;;;;;;;;;5046889;28;20483;-81
2022/12/04 11:44:02;;;;;;;61.28;34.50;;;;;;;;;;5048307;28;20408;-80
2022/12/04 11:46:30;;;;;;;63.35;35.10;;;;;;;;;;5050237;28;20421;-80
2022/12/04 11:48:56;;;;;;;67.35;36.58;;;;;;;;;;5046573;28;20485;-81
2022/12/04 11:51:28;;;;;;;59.85;33.45;;;;;;;;;;5048586;28;20432;-81
2022/12/04 11:53:57;;;;;;;62.88;36.20;;;;;;;;;;5049841;28;20415;-82
2022/12/04 11:56:26;;;;;;;63.65;36.08;;;;;;;;;;5044526;28;20969;-79
2022/12/04 11:59:08;;;;;;;64.93;33.88;;;;;;;;;;5046892;28;20436;-79
2022/12/04 12:01:40;;;;;;;62.23;33.83;;;;;;;;;;5039144;28;21008;-81
2022/12/04 12:04:24;;;;;;;62.50;34.22;;;;;;;;;;5047011;28;20429;-81
2022/12/04 12:06:56;;;;;;;62.67;33.72;;;;;;;;;;5047063;28;20425;-81
2022/12/04 12:09:28;;;;;;;62.10;33.88;;;;;;;;;;5044256;28;20499;-81
2022/12/04 12:11:59;;;;;;;69.28;37.65;;;;;;;;;;5049284;28;20440;-79
2022/12/04 12:14:31;;;;;;;62.45;32.60;;;;;;;;;;5045775;28;20424;-81
2022/12/04 12:17:03;;;;;;;63.22;34.45;;;;;;;;;;5043561;28;20479;-80
2022/12/04 12:19:34;;;;;;;58.05;32.78;;;;;;;;;;5043196;28;20412;-80
2022/12/04 12:22:05;;;;;;;61.78;34.50;;;;;;;;;;5047529;28;20435;-80
2022/12/04 12:24:36;;;;;;;61.72;32.90;;;;;;;;;;5043157;28;20417;-82
2022/12/04 12:27:11;;;;;;;61.72;32.85;;;;;;;;;;5047205;28;20485;-80
2022/12/04 12:29:47;;;;;;;62.40;32.75;;;;;;;;;;5042731;28;20420;-81
2022/12/04 12:32:21;;;;;;;55.27;31.93;;;;;;;;;;5047944;28;20843;-81
2022/12/04 12:34:49;;;;;;;57.13;32.53;;;;;;;;;;5042105;28;20776;-81
2022/12/04 12:37:18;;;;;;;61.15;34.10;;;;;;;;;;5045788;28;20984;-80
2022/12/04 12:39:46;;;;;;;54.03;30.63;;;;;;;;;;5042118;28;20501;-80
2022/12/04 12:42:17;;;;;;;55.00;31.00;;;;;;;;;;5047306;28;20432;-81
2022/12/04 12:44:48;;;;;;;56.70;30.83;;;;;;;;;;5045715;28;20425;-80
2022/12/04 12:47:16;;;;;;;53.30;29.63;;;;;;;;;;5042970;28;20413;-81
2022/12/04 12:49:47;;;;;;;54.58;31.10;;;;;;;;;;5045587;28;20446;-81
2022/12/04 12:52:16;;;;;;;56.63;30.65;;;;;;;;;;5043350;28;21201;-80
2022/12/04 12:54:48;;;;;;;56.58;30.52;;;;;;;;;;5047942;28;20405;-81
2022/12/04 12:57:17;;;;;;;57.67;33.60;;;;;;;;;;5044090;28;20963;-80
2022/12/04 12:59:49;;;;;;;56.13;31.95;;;;;;;;;;5048216;28;20409;-80
2022/12/04 13:02:21;;;;;;;58.67;32.22;;;;;;;;;;5043272;28;20409;-80
2022/12/04 13:04:51;;;;;;;56.50;30.42;;;;;;;;;;5047109;28;20430;-80
2022/12/04 13:07:26;;;;;;;55.67;31.00;;;;;;;;;;5044274;28;20438;-81
2022/12/04 13:09:54;;;;;;;55.40;30.45;;;;;;;;;;5045652;28;20420;-81
2022/12/04 13:12:22;;;;;;;56.95;30.88;;;;;;;;;;5047550;28;20429;-81
2022/12/04 13:14:49;;;;;;;52.47;30.20;;;;;;;;;;5046210;28;20467;-79
2022/12/04 13:17:17;;;;;;;50.65;30.23;;;;;;;;;;5043900;28;20417;-80
2022/12/04 13:19:46;;;;;;;53.60;30.30;;;;;;;;;;5049622;28;20421;-80
2022/12/04 13:22:18;;;;;;;57.57;31.97;;;;;;;;;;5052173;28;20430;-80
2022/12/04 13:24:53;;;;;;;57.73;31.90;;;;;;;;;;5044699;28;20482;-80
2022/12/04 13:27:25;;;;;;;57.90;32.30;;;;;;;;;;5051314;28;20429;-81
2022/12/04 13:29:59;;;;;;;55.08;31.00;;;;;;;;;;5045322;28;20417;-81
2022/12/04 13:32:33;;;;;;;58.30;33.80;;;;;;;;;;5049971;28;20809;-80
2022/12/04 13:35:04;;;;;;;55.45;30.20;;;;;;;;;;5050339;28;20414;-80
2022/12/04 13:37:42;;;;;;;61.45;31.90;;;;;;;;;;5048677;28;20434;-80
2022/12/04 13:40:25;;;;;;;62.05;32.90;;;;;;;;;;5047753;28;20935;-80
2022/12/04 13:42:51;;;;;;;59.10;31.35;;;;;;;;;;5047484;28;20437;-80
2022/12/04 13:45:25;;;;;;;60.20;32.58;;;;;;;;;;5046721;28;20417;-80
2022/12/04 13:47:56;;;;;;;65.68;32.95;;;;;;;;;;5046152;28;20491;-80
2022/12/04 13:50:28;;;;;;;63.80;33.97;;;;;;;;;;5049915;28;20417;-80
2022/12/04 13:52:55;;;;;;;61.15;33.95;;;;;;;;;;5048808;28;20405;-81
2022/12/04 13:55:23;;;;;;;57.97;31.52;;;;;;;;;;5047193;28;20994;-79
2022/12/04 13:57:52;;;;;;;64.25;33.58;;;;;;;;;;5051848;28;20429;-79
2022/12/04 14:00:25;;;;;;;59.90;33.00;;;;;;;;;;5045530;28;20935;-80
2022/12/04 14:02:53;;;;;;;60.95;33.55;;;;;;;;;;5046459;28;20462;-80
2022/12/04 14:05:25;;;;;;;55.92;32.05;;;;;;;;;;5049361;28;20430;-81
2022/12/04 14:07:59;;;;;;;54.80;30.53;;;;;;;;;;5047102;28;20426;-79
2022/12/04 14:10:27;;;;;;;57.58;31.95;;;;;;;;;;5047197;28;20432;-82
2022/12/04 14:12:58;;;;;;;51.90;30.17;;;;;;;;;;5044336;28;20812;-82
2022/12/04 14:15:25;;;;;;;55.25;31.83;;;;;;;;;;5046775;28;20415;-79
2022/12/04 14:18:00;;;;;;;57.78;32.55;;;;;;;;;;5046503;28;20429;-79
2022/12/04 14:20:27;;;;;;;55.92;30.63;;;;;;;;;;5047215;28;20421;-78
2022/12/04 14:22:53;;;;;;;58.90;33.25;;;;;;;;;;5044034;28;20429;-80
2022/12/04 14:25:24;;;;;;;56.75;31.13;;;;;;;;;;5050508;28;20417;-80
2022/12/04 14:27:52;;;;;;;54.08;30.05;;;;;;;;;;5044531;28;20415;-80
2022/12/04 14:30:20;;;;;;;56.03;30.85;;;;;;;;;;5047492;28;20415;-79
2022/12/04 14:32:48;;;;;;;52.58;29.10;;;;;;;;;;5046822;28;20418;-80